createdAt,value
2023-03-13T00:00:26.594Z,97941.23
2023-03-13T00:02:10.518Z,97941.78
2023-03-13T00:03:54.497Z,97940.39
2023-03-13T00:05:37.785Z,97937.34
2023-03-13T00:07:12.852Z,97930.73
2023-03-13T00:09:05.275Z,97923.20
2023-03-13T00:10:26.652Z,97920.34
2023-03-13T00:11:54.508Z,97919.58
2023-03-13T00:13:38.423Z,97919.05
2023-03-13T00:15:08.438Z,97913.05
2023-03-13T00:16:42.931Z,97912.28
2023-03-13T00:18:26.332Z,97914.36
2023-03-13T00:20:03.937Z,97910.69
2023-03-13T00:21:43.149Z,97907.00
2023-03-13T00:23:13.202Z,97905.20
2023-03-13T00:24:59.690Z,97902.20
2023-03-13T00:26:19.974Z,97911.38
2023-03-13T00:27:42.843Z,97910.46
2023-03-13T00:29:12.793Z,97909.52
2023-03-13T00:30:47.973Z,97917.45
2023-03-13T00:32:22.711Z,97912.47
2023-03-13T00:33:59.160Z,97914.84
2023-03-13T00:35:19.756Z,97920.19
2023-03-13T00:36:54.699Z,97915.86
2023-03-13T00:38:16.527Z,97923.92
2023-03-13T00:39:39.085Z,97926.13
2023-03-13T00:41:13.829Z,97922.54
2023-03-13T00:42:38.857Z,97923.06
2023-03-13T00:44:04.230Z,97919.22
2023-03-13T00:45:31.675Z,97917.17
2023-03-13T00:46:59.629Z,97906.90
2023-03-13T00:48:33.668Z,97907.63
2023-03-13T00:50:17.281Z,97905.93
2023-03-13T00:51:39.385Z,97899.52
2023-03-13T00:53:14.464Z,97897.15
2023-03-13T00:54:39.564Z,97886.98
2023-03-13T00:56:11.769Z,97886.89
2023-03-13T00:57:39.499Z,97892.93
2023-03-13T00:59:04.246Z,97892.75
2023-03-13T01:00:25.397Z,97887.66
2023-03-13T01:01:57.303Z,97888.16
2023-03-13T01:03:18.135Z,97886.41
2023-03-13T01:04:40.762Z,97885.92
2023-03-13T01:06:19.960Z,97894.05
2023-03-13T01:08:01.307Z,97889.21
2023-03-13T01:09:21.749Z,97889.05
2023-03-13T01:10:44.248Z,97882.45
2023-03-13T01:12:07.101Z,97877.17
2023-03-13T01:13:38.695Z,97877.11
2023-03-13T01:14:59.143Z,97871.66
2023-03-13T01:16:19.236Z,97872.29
2023-03-13T01:17:44.191Z,97874.91
2023-03-13T01:19:06.160Z,97873.09
2023-03-13T01:20:26.007Z,97869.81
2023-03-13T01:21:46.424Z,97871.38
2023-03-13T01:23:09.010Z,97876.77
2023-03-13T01:24:39.345Z,97870.06
2023-03-13T01:25:59.787Z,97873.61
2023-03-13T01:27:19.863Z,97872.77
2023-03-13T01:28:52.762Z,97873.83
2023-03-13T01:30:16.073Z,97874.77
2023-03-13T01:31:36.641Z,97876.70
2023-03-13T01:33:07.060Z,97878.91
2023-03-13T01:34:29.350Z,97871.45
2023-03-13T01:35:59.107Z,97876.23
2023-03-13T01:37:22.033Z,97868.74
2023-03-13T01:38:46.959Z,97870.33
2023-03-13T01:40:30.436Z,97871.90
2023-03-13T01:42:05.825Z,97863.48
2023-03-13T01:43:33.233Z,97859.80
2023-03-13T01:45:05.221Z,97861.10
2023-03-13T01:46:27.143Z,97857.10
2023-03-13T01:48:47.106Z,97854.23
2023-03-13T01:50:08.857Z,97864.11
2023-03-13T01:51:44.210Z,97856.23
2023-03-13T01:53:14.443Z,97857.75
2023-03-13T01:54:48.832Z,97842.09
2023-03-13T01:56:13.241Z,97852.52
2023-03-13T01:57:36.076Z,97845.36
2023-03-13T01:58:56.811Z,97845.08
2023-03-13T02:00:19.261Z,97846.06
2023-03-13T02:01:40.355Z,97843.63
2023-03-13T02:03:03.126Z,97850.06
2023-03-13T02:04:23.608Z,97855.07
2023-03-13T02:05:55.964Z,97852.61
2023-03-13T02:07:30.980Z,97853.80
2023-03-13T02:08:52.013Z,97851.24
2023-03-13T02:10:12.227Z,97854.48
2023-03-13T02:11:46.877Z,97852.20
2023-03-13T02:13:19.180Z,97846.34
2023-03-13T02:14:51.498Z,97850.75
2023-03-13T02:16:23.773Z,97857.60
2023-03-13T02:18:00.203Z,97855.55
2023-03-13T02:19:32.265Z,97858.02
2023-03-13T02:21:00.369Z,97853.08
2023-03-13T02:22:31.822Z,97851.91
2023-03-13T02:24:06.769Z,97849.43
2023-03-13T02:25:27.181Z,97847.65
2023-03-13T02:27:09.061Z,97845.29
2023-03-13T02:28:58.108Z,97853.52
2023-03-13T02:30:26.211Z,97855.14
2023-03-13T02:31:46.572Z,97847.08
2023-03-13T02:33:14.109Z,97855.06
2023-03-13T02:34:34.581Z,97866.28
2023-03-13T02:36:06.852Z,97860.16
2023-03-13T02:37:38.686Z,97856.19
2023-03-13T02:39:13.393Z,97859.52
2023-03-13T02:40:45.491Z,97860.36
2023-03-13T02:42:25.890Z,97862.06
2023-03-13T02:43:58.236Z,97866.67
2023-03-13T02:45:28.786Z,97868.20
2023-03-13T02:47:16.381Z,97853.61
2023-03-13T02:49:08.485Z,97866.12
2023-03-13T02:50:40.682Z,97873.33
2023-03-13T02:52:19.931Z,97867.57
2023-03-13T02:53:49.901Z,97865.02
2023-03-13T02:55:21.712Z,97870.16
2023-03-13T02:57:00.982Z,97865.92
2023-03-13T02:58:50.464Z,97861.20
2023-03-13T03:00:26.349Z,97858.14
2023-03-13T03:02:00.382Z,97864.10
2023-03-13T03:03:28.088Z,97868.63
2023-03-13T03:05:11.741Z,97862.23
2023-03-13T03:06:55.234Z,97870.92
2023-03-13T03:08:23.061Z,97871.29
2023-03-13T03:10:06.595Z,97868.34
2023-03-13T03:11:38.509Z,97880.67
2023-03-13T03:13:03.773Z,97879.52
2023-03-13T03:14:37.745Z,97876.29
2023-03-13T03:16:11.009Z,97872.18
2023-03-13T03:17:42.999Z,97871.55
2023-03-13T03:19:10.780Z,97870.06
2023-03-13T03:20:58.770Z,97860.77
2023-03-13T03:22:42.736Z,97872.73
2023-03-13T03:24:21.676Z,97873.56
2023-03-13T03:25:53.832Z,97873.96
2023-03-13T03:27:26.003Z,97868.85
2023-03-13T03:29:10.394Z,97869.27
2023-03-13T03:30:54.156Z,97869.96
2023-03-13T03:32:37.496Z,97867.45
2023-03-13T03:34:12.244Z,97861.43
2023-03-13T03:35:45.008Z,97862.70
2023-03-13T03:37:24.402Z,97862.44
2023-03-13T03:38:44.867Z,97856.24
2023-03-13T03:40:29.447Z,97858.57
2023-03-13T03:41:59.551Z,97857.67
2023-03-13T03:43:22.138Z,97861.61
2023-03-13T03:44:50.352Z,97860.41
2023-03-13T03:46:33.934Z,97856.06
2023-03-13T03:48:17.834Z,97861.80
2023-03-13T03:49:52.397Z,97861.21
2023-03-13T03:51:24.553Z,97859.98
2023-03-13T03:53:08.283Z,97851.52
2023-03-13T03:54:40.374Z,97845.58
2023-03-13T03:56:08.777Z,97848.75
2023-03-13T03:57:44.081Z,97846.60
2023-03-13T03:59:14.826Z,97847.58
2023-03-13T04:01:02.227Z,97844.45
2023-03-13T04:02:46.913Z,97843.91
2023-03-13T04:04:30.592Z,97842.10
2023-03-13T04:06:02.322Z,97839.64
2023-03-13T04:07:34.112Z,97838.02
2023-03-13T04:09:17.856Z,97836.79
2023-03-13T04:10:51.805Z,97836.42
2023-03-13T04:12:19.122Z,97827.25
2023-03-13T04:14:00.329Z,97839.61
2023-03-13T04:15:52.987Z,97836.07
2023-03-13T04:17:26.860Z,97835.82
2023-03-13T04:18:54.535Z,97829.42
2023-03-13T04:20:37.915Z,97823.32
2023-03-13T04:21:58.437Z,97821.98
2023-03-13T04:23:33.179Z,97826.73
2023-03-13T04:24:56.712Z,97836.39
2023-03-13T04:26:40.303Z,97833.45
2023-03-13T04:28:23.646Z,97838.99
2023-03-13T04:30:08.150Z,97833.85
2023-03-13T04:31:51.137Z,97829.80
2023-03-13T04:33:39.176Z,97826.56
2023-03-13T04:35:34.561Z,97821.67
2023-03-13T04:38:06.614Z,97805.83
2023-03-13T04:39:33.230Z,97827.58
2023-03-13T04:41:36.139Z,97826.88
2023-03-13T04:43:26.106Z,97830.45
2023-03-13T04:45:14.899Z,97829.89
2023-03-13T04:46:49.145Z,97830.78
2023-03-13T04:48:50.593Z,97831.24
2023-03-13T04:51:12.949Z,97827.77
2023-03-13T04:53:44.561Z,97832.17
2023-03-13T04:55:36.757Z,97834.14
2023-03-13T04:58:11.972Z,97832.71
2023-03-13T04:59:48.020Z,97832.81
2023-03-13T05:01:22.583Z,97832.92
2023-03-13T05:03:17.365Z,97834.14
2023-03-13T05:05:39.833Z,97831.58
2023-03-13T05:08:12.124Z,97825.89
2023-03-13T05:10:01.089Z,97822.20
2023-03-13T05:12:00.996Z,97818.97
2023-03-13T05:14:01.247Z,97824.70
2023-03-13T05:15:56.604Z,97822.95
2023-03-13T05:18:26.634Z,97820.16
2023-03-13T05:20:58.920Z,97816.44
2023-03-13T05:23:00.005Z,97808.28
2023-03-13T05:25:09.765Z,97810.02
2023-03-13T05:27:08.766Z,97809.52
2023-03-13T05:29:19.027Z,97814.45
2023-03-13T05:31:44.490Z,97804.46
2023-03-13T05:33:23.914Z,97806.45
2023-03-13T05:35:38.696Z,97802.96
2023-03-13T05:37:49.317Z,97792.92
2023-03-13T05:39:28.424Z,97792.92
2023-03-13T05:42:04.017Z,97782.58
2023-03-13T05:43:38.627Z,97788.05
2023-03-13T05:45:27.384Z,97784.58
2023-03-13T05:47:06.019Z,97779.52
2023-03-13T05:48:49.073Z,97784.58
2023-03-13T05:50:25.009Z,97786.66
2023-03-13T05:52:16.484Z,97790.11
2023-03-13T05:54:38.756Z,97792.50
2023-03-13T05:56:32.198Z,97794.23
2023-03-13T05:58:58.130Z,97790.73
2023-03-13T06:00:57.995Z,97788.20
2023-03-13T06:02:54.174Z,97787.55
2023-03-13T06:04:45.416Z,97783.59
2023-03-13T06:06:20.639Z,97782.53
2023-03-13T06:08:04.255Z,97780.69
2023-03-13T06:09:36.822Z,97777.63
2023-03-13T06:11:20.329Z,97778.27
2023-03-13T06:13:17.156Z,97768.97
2023-03-13T06:14:54.976Z,97774.16
2023-03-13T06:16:18.036Z,97780.70
2023-03-13T06:18:03.458Z,97778.58
2023-03-13T06:19:48.124Z,97778.27
2023-03-13T06:21:20.335Z,97778.48
2023-03-13T06:23:04.964Z,97775.59
2023-03-13T06:24:49.064Z,97774.06
2023-03-13T06:26:21.051Z,97773.09
2023-03-13T06:27:41.989Z,97763.48
2023-03-13T06:29:25.798Z,97767.33
2023-03-13T06:31:10.157Z,97771.31
2023-03-13T06:32:49.897Z,97772.73
2023-03-13T06:34:33.786Z,97766.77
2023-03-13T06:36:07.501Z,97771.45
2023-03-13T06:37:59.052Z,97768.41
2023-03-13T06:39:33.661Z,97765.05
2023-03-13T06:41:19.388Z,97765.52
2023-03-13T06:43:03.607Z,97763.83
2023-03-13T06:44:47.948Z,97759.61
2023-03-13T06:46:08.644Z,97760.98
2023-03-13T06:47:31.544Z,97763.64
2023-03-13T06:49:11.978Z,97759.73
2023-03-13T06:50:57.084Z,97762.34
2023-03-13T06:52:44.210Z,97762.84
2023-03-13T06:54:16.267Z,97763.98
2023-03-13T06:55:36.692Z,97757.39
2023-03-13T06:57:13.520Z,97760.63
2023-03-13T06:58:47.766Z,97761.09
2023-03-13T07:00:19.861Z,97760.86
2023-03-13T07:01:42.945Z,97762.90
2023-03-13T07:03:17.622Z,97764.64
2023-03-13T07:05:04.696Z,97762.34
2023-03-13T07:06:36.243Z,97761.79
2023-03-13T07:08:15.542Z,97760.27
2023-03-13T07:10:03.943Z,97765.56
2023-03-13T07:11:48.283Z,97762.75
2023-03-13T07:13:32.843Z,97762.41
2023-03-13T07:15:04.605Z,97767.75
2023-03-13T07:16:36.374Z,97764.98
2023-03-13T07:18:08.601Z,97765.77
2023-03-13T07:20:02.152Z,97749.73
2023-03-13T07:21:46.125Z,97765.98
2023-03-13T07:23:31.858Z,97766.87
2023-03-13T07:25:04.089Z,97765.96
2023-03-13T07:26:38.102Z,97761.48
2023-03-13T07:28:21.884Z,97762.59
2023-03-13T07:30:03.000Z,97766.12
2023-03-13T07:31:35.009Z,97756.17
2023-03-13T07:33:20.842Z,97760.98
2023-03-13T07:35:05.707Z,97757.87
2023-03-13T07:36:30.270Z,97762.36
2023-03-13T07:38:14.615Z,97754.98
2023-03-13T07:40:08.011Z,97745.95
2023-03-13T07:41:40.095Z,97745.41
2023-03-13T07:43:14.951Z,97747.93
2023-03-13T07:45:08.817Z,97725.89
2023-03-13T07:46:41.511Z,97737.55
2023-03-13T07:48:25.271Z,97737.16
2023-03-13T07:50:11.352Z,97734.73
2023-03-13T07:51:55.417Z,97728.35
2023-03-13T07:53:39.779Z,97728.67
2023-03-13T07:55:19.883Z,97722.52
2023-03-13T07:57:09.141Z,97716.00
2023-03-13T07:58:31.658Z,97723.65
2023-03-13T08:00:15.968Z,97716.05
2023-03-13T08:01:47.844Z,97720.30
2023-03-13T08:03:31.902Z,97713.36
2023-03-13T08:05:16.475Z,97715.54
2023-03-13T08:06:50.936Z,97708.28
2023-03-13T08:08:30.406Z,97707.63
2023-03-13T08:10:02.983Z,97699.44
2023-03-13T08:11:43.811Z,97698.61
2023-03-13T08:13:36.946Z,97700.84
2023-03-13T08:15:15.250Z,97703.34
2023-03-13T08:16:40.397Z,97706.31
2023-03-13T08:18:13.074Z,97707.02
2023-03-13T08:19:57.153Z,97699.88
2023-03-13T08:21:48.559Z,97702.02
2023-03-13T08:23:20.774Z,97700.65
2023-03-13T08:25:04.901Z,97690.20
2023-03-13T08:26:49.005Z,97685.20
2023-03-13T08:28:21.271Z,97692.22
2023-03-13T08:30:02.953Z,97691.34
2023-03-13T08:31:48.674Z,97684.88
2023-03-13T08:33:12.223Z,97684.39
2023-03-13T08:34:55.932Z,97677.02
2023-03-13T08:36:28.178Z,97677.92
2023-03-13T08:38:12.220Z,97670.64
2023-03-13T08:40:04.685Z,97673.04
2023-03-13T08:41:57.938Z,97669.66
2023-03-13T08:43:41.594Z,97665.04
2023-03-13T08:45:04.625Z,97659.34
2023-03-13T08:46:57.954Z,97666.27
2023-03-13T08:48:45.293Z,97663.24
2023-03-13T08:50:17.507Z,97666.73
2023-03-13T08:52:01.308Z,97664.75
2023-03-13T08:53:45.133Z,97663.45
2023-03-13T08:55:31.257Z,97662.73
2023-03-13T08:57:16.008Z,97650.36
2023-03-13T08:59:01.656Z,97658.77
2023-03-13T09:00:33.632Z,97658.18
2023-03-13T09:02:18.036Z,97650.79
2023-03-13T09:04:08.200Z,97649.27
2023-03-13T09:05:38.554Z,97632.94
2023-03-13T09:07:08.843Z,97653.30
2023-03-13T09:08:29.213Z,97651.91
2023-03-13T09:09:51.974Z,97654.02
2023-03-13T09:11:35.677Z,97651.94
2023-03-13T09:13:08.404Z,97652.85
2023-03-13T09:14:39.997Z,97643.77
2023-03-13T09:16:12.274Z,97639.93
2023-03-13T09:17:51.694Z,97631.72
2023-03-13T09:19:12.405Z,97628.23
2023-03-13T09:20:48.890Z,97633.43
2023-03-13T09:22:21.064Z,97628.79
2023-03-13T09:24:00.512Z,97628.98
2023-03-13T09:25:23.326Z,97623.39
2023-03-13T09:27:07.221Z,97626.55
2023-03-13T09:28:42.184Z,97615.25
2023-03-13T09:30:26.078Z,97619.27
2023-03-13T09:32:06.305Z,97613.45
2023-03-13T09:33:28.691Z,97611.97
2023-03-13T09:34:49.264Z,97611.77
2023-03-13T09:36:09.774Z,97614.33
2023-03-13T09:37:37.646Z,97612.66
2023-03-13T09:39:12.929Z,97617.53
2023-03-13T09:41:04.863Z,97612.20
2023-03-13T09:42:26.166Z,97617.84
2023-03-13T09:43:46.719Z,97617.41
2023-03-13T09:45:39.895Z,97612.16
2023-03-13T09:47:32.993Z,97618.88
2023-03-13T09:49:18.421Z,97618.44
2023-03-13T09:50:58.263Z,97619.56
2023-03-13T09:52:30.122Z,97622.88
2023-03-13T09:54:02.174Z,97628.69
2023-03-13T09:55:25.293Z,97603.86
2023-03-13T09:56:48.442Z,97613.59
2023-03-13T09:58:27.602Z,97604.89
2023-03-13T10:00:11.748Z,97600.38
2023-03-13T10:01:55.261Z,97602.45
2023-03-13T10:03:15.903Z,97600.07
2023-03-13T10:04:36.251Z,97597.29
2023-03-13T10:06:19.962Z,97591.52
2023-03-13T10:08:05.302Z,97590.83
2023-03-13T10:09:25.156Z,97576.30
2023-03-13T10:11:00.941Z,97584.48
2023-03-13T10:12:23.578Z,97581.13
2023-03-13T10:13:46.386Z,97573.43
2023-03-13T10:15:18.464Z,97571.08
2023-03-13T10:16:38.833Z,97568.98
2023-03-13T10:18:11.103Z,97568.25
2023-03-13T10:19:50.879Z,97571.87
2023-03-13T10:21:22.419Z,97565.36
2023-03-13T10:23:03.937Z,97562.60
2023-03-13T10:24:48.426Z,97562.02
2023-03-13T10:26:31.942Z,97558.00
2023-03-13T10:28:15.576Z,97552.50
2023-03-13T10:29:37.965Z,97552.40
2023-03-13T10:31:21.837Z,97538.29
2023-03-13T10:33:08.187Z,97545.08
2023-03-13T10:34:47.147Z,97543.46
2023-03-13T10:36:31.091Z,97537.59
2023-03-13T10:37:51.742Z,97536.55
2023-03-13T10:39:14.530Z,97533.94
2023-03-13T10:40:58.297Z,97520.23
2023-03-13T10:42:32.763Z,97525.52
2023-03-13T10:44:04.755Z,97531.21
2023-03-13T10:45:38.685Z,97521.70
2023-03-13T10:47:13.081Z,97522.73
2023-03-13T10:48:52.524Z,97516.67
2023-03-13T10:50:15.030Z,97520.40
2023-03-13T10:51:51.400Z,97515.48
2023-03-13T10:53:23.699Z,97507.63
2023-03-13T10:55:03.534Z,97501.98
2023-03-13T10:56:37.736Z,97499.75
2023-03-13T10:58:21.269Z,97495.86
2023-03-13T10:59:41.847Z,97498.89
2023-03-13T11:01:05.006Z,97489.95
2023-03-13T11:02:45.377Z,97484.71
2023-03-13T11:04:08.522Z,97482.42
2023-03-13T11:05:42.389Z,97482.86
2023-03-13T11:07:17.719Z,97474.16
2023-03-13T11:08:40.355Z,97475.85
2023-03-13T11:10:24.456Z,97469.67
2023-03-13T11:12:04.994Z,97448.98
2023-03-13T11:13:37.990Z,97461.88
2023-03-13T11:15:10.294Z,97455.03
2023-03-13T11:16:49.622Z,97451.59
2023-03-13T11:18:10.133Z,97452.50
2023-03-13T11:19:51.049Z,97446.93
2023-03-13T11:21:35.809Z,97428.00
2023-03-13T11:22:59.013Z,97435.54
2023-03-13T11:24:32.887Z,97436.08
2023-03-13T11:26:05.232Z,97447.72
2023-03-13T11:27:36.676Z,97434.91
2023-03-13T11:29:08.774Z,97432.68
2023-03-13T11:30:42.621Z,97435.64
2023-03-13T11:32:26.259Z,97432.05
2023-03-13T11:33:58.666Z,97434.11
2023-03-13T11:35:47.090Z,97431.20
2023-03-13T11:37:22.230Z,97429.34
2023-03-13T11:39:10.957Z,97431.45
2023-03-13T11:40:43.066Z,97432.09
2023-03-13T11:42:14.967Z,97439.31
2023-03-13T11:43:42.937Z,97436.92
2023-03-13T11:45:03.539Z,97442.17
2023-03-13T11:46:56.160Z,97428.95
2023-03-13T11:48:21.188Z,97433.99
2023-03-13T11:49:43.829Z,97427.09
2023-03-13T11:51:20.815Z,97430.70
2023-03-13T11:52:53.143Z,97412.94
2023-03-13T11:54:28.502Z,97431.20
2023-03-13T11:55:55.930Z,97425.08
2023-03-13T11:57:42.225Z,97423.84
2023-03-13T11:59:10.159Z,97422.02
2023-03-13T12:00:42.257Z,97419.50
2023-03-13T12:02:10.256Z,97418.31
2023-03-13T12:03:30.700Z,97410.87
2023-03-13T12:05:14.757Z,97410.14
2023-03-13T12:06:37.314Z,97404.02
2023-03-13T12:08:09.541Z,97399.77
2023-03-13T12:09:29.708Z,97397.06
2023-03-13T12:10:50.821Z,97396.55
2023-03-13T12:12:34.517Z,97397.63
2023-03-13T12:13:57.375Z,97393.06
2023-03-13T12:15:19.294Z,97390.56
2023-03-13T12:16:40.351Z,97389.63
2023-03-13T12:18:12.313Z,97391.10
2023-03-13T12:19:35.609Z,97392.21
2023-03-13T12:21:07.594Z,97394.63
2023-03-13T12:22:39.589Z,97399.31
2023-03-13T12:24:11.994Z,97394.42
2023-03-13T12:25:46.017Z,97389.13
2023-03-13T12:27:06.729Z,97392.15
2023-03-13T12:28:58.482Z,97392.87
2023-03-13T12:30:30.384Z,97393.75
2023-03-13T12:32:02.405Z,97387.06
2023-03-13T12:33:24.214Z,97389.49
2023-03-13T12:34:44.584Z,97387.35
2023-03-13T12:36:16.347Z,97385.61
2023-03-13T12:38:08.992Z,97378.02
2023-03-13T12:39:40.798Z,97370.98
2023-03-13T12:41:04.578Z,97371.80
2023-03-13T12:42:38.758Z,97364.98
2023-03-13T12:44:09.213Z,97367.50
2023-03-13T12:45:47.559Z,97362.30
2023-03-13T12:47:19.830Z,97359.13
2023-03-13T12:48:42.390Z,97354.41
2023-03-13T12:50:25.745Z,97354.33
2023-03-13T12:52:14.966Z,97334.70
2023-03-13T12:53:46.838Z,97346.64
2023-03-13T12:55:30.629Z,97340.36
2023-03-13T12:56:51.039Z,97328.52
2023-03-13T12:58:19.187Z,97324.50
2023-03-13T12:59:59.568Z,97320.08
2023-03-13T13:01:31.630Z,97312.34
2023-03-13T13:03:15.500Z,97318.81
2023-03-13T13:04:47.622Z,97313.30
2023-03-13T13:06:19.910Z,97310.98
2023-03-13T13:07:40.125Z,97311.94
2023-03-13T13:09:07.838Z,97312.53
2023-03-13T13:10:40.794Z,97315.82
2023-03-13T13:12:01.550Z,97284.79
2023-03-13T13:13:43.138Z,97310.59
2023-03-13T13:15:15.642Z,97305.13
2023-03-13T13:16:50.964Z,97310.00
2023-03-13T13:18:30.759Z,97297.08
2023-03-13T13:20:16.093Z,97315.71
2023-03-13T13:21:56.091Z,97314.80
2023-03-13T13:23:39.496Z,97298.02
2023-03-13T13:24:59.954Z,97304.68
2023-03-13T13:26:21.554Z,97307.02
2023-03-13T13:27:54.020Z,97302.38
2023-03-13T13:29:14.173Z,97304.79
2023-03-13T13:30:48.799Z,97301.31
2023-03-13T13:32:32.508Z,97305.73
2023-03-13T13:33:53.248Z,97291.65
2023-03-13T13:35:25.573Z,97310.02
2023-03-13T13:37:09.188Z,97311.17
2023-03-13T13:38:41.102Z,97307.87
2023-03-13T13:40:03.178Z,97303.30
2023-03-13T13:41:30.747Z,97299.16
2023-03-13T13:42:51.359Z,97306.36
2023-03-13T13:44:19.261Z,97302.24
2023-03-13T13:45:41.747Z,97287.95
2023-03-13T13:47:16.593Z,97300.52
2023-03-13T13:48:39.311Z,97305.17
2023-03-13T13:50:11.573Z,97309.84
2023-03-13T13:51:32.072Z,97302.34
2023-03-13T13:52:52.296Z,97300.27
2023-03-13T13:54:12.683Z,97304.52
2023-03-13T13:55:52.375Z,97313.36
2023-03-13T13:57:26.378Z,97300.19
2023-03-13T13:58:58.585Z,97299.38
2023-03-13T14:00:24.387Z,97302.70
2023-03-13T14:01:59.430Z,97308.56
2023-03-13T14:03:40.071Z,97310.46
2023-03-13T14:05:12.387Z,97303.80
2023-03-13T14:06:35.226Z,97304.96
2023-03-13T14:07:55.758Z,97301.23
2023-03-13T14:09:18.234Z,97296.08
2023-03-13T14:10:50.415Z,97293.23
2023-03-13T14:12:11.096Z,97299.20
2023-03-13T14:13:50.314Z,97306.86
2023-03-13T14:15:11.217Z,97300.41
2023-03-13T14:16:31.602Z,97286.27
2023-03-13T14:17:55.092Z,97290.53
2023-03-13T14:19:18.177Z,97289.17
2023-03-13T14:20:38.971Z,97287.39
2023-03-13T14:22:13.738Z,97289.65
2023-03-13T14:23:45.734Z,97294.81
2023-03-13T14:25:25.737Z,97293.83
2023-03-13T14:27:05.375Z,97295.11
2023-03-13T14:28:59.002Z,97289.13
2023-03-13T14:30:31.110Z,97293.65
2023-03-13T14:31:52.220Z,97290.06
2023-03-13T14:33:26.084Z,97278.29
2023-03-13T14:35:09.837Z,97275.98
2023-03-13T14:37:17.371Z,97259.29
2023-03-13T14:38:53.313Z,97263.86
2023-03-13T14:40:13.747Z,97265.29
2023-03-13T14:42:05.041Z,97261.34
2023-03-13T14:43:36.410Z,97258.73
2023-03-13T14:44:58.697Z,97246.42
2023-03-13T14:46:20.453Z,97247.61
2023-03-13T14:48:04.754Z,97240.73
2023-03-13T14:49:36.563Z,97237.14
2023-03-13T14:51:15.637Z,97247.47
2023-03-13T14:52:48.333Z,97255.68
2023-03-13T14:54:11.580Z,97254.98
2023-03-13T14:55:43.590Z,97270.13
2023-03-13T14:57:15.562Z,97265.02
2023-03-13T14:58:55.132Z,97264.05
2023-03-13T15:00:27.858Z,97268.27
2023-03-13T15:01:53.014Z,97260.14
2023-03-13T15:03:20.929Z,97256.58
2023-03-13T15:05:00.425Z,97259.23
2023-03-13T15:06:28.751Z,97259.23
2023-03-13T15:08:10.147Z,97254.97
2023-03-13T15:09:32.993Z,97255.19
2023-03-13T15:11:17.192Z,97240.77
2023-03-13T15:12:49.108Z,97240.93
2023-03-13T15:14:21.296Z,97242.44
2023-03-13T15:15:55.570Z,97235.22
2023-03-13T15:17:34.768Z,97223.95
2023-03-13T15:18:57.244Z,97232.84
2023-03-13T15:20:24.899Z,97230.85
2023-03-13T15:22:04.522Z,97231.20
2023-03-13T15:23:31.909Z,97225.55
2023-03-13T15:25:16.003Z,97208.61
2023-03-13T15:26:49.280Z,97212.20
2023-03-13T15:28:32.930Z,97208.55
2023-03-13T15:30:07.890Z,97207.38
2023-03-13T15:31:39.620Z,97217.11
2023-03-13T15:33:02.757Z,97216.02
2023-03-13T15:34:46.543Z,97229.05
2023-03-13T15:36:30.613Z,97237.48
2023-03-13T15:38:14.219Z,97225.47
2023-03-13T15:40:00.156Z,97227.78
2023-03-13T15:41:34.847Z,97235.83
2023-03-13T15:43:19.039Z,97243.52
2023-03-13T15:44:39.528Z,97241.48
2023-03-13T15:46:21.076Z,97242.78
2023-03-13T15:48:05.270Z,97235.16
2023-03-13T15:49:25.917Z,97235.88
2023-03-13T15:50:46.753Z,97222.42
2023-03-13T15:52:19.349Z,97240.26
2023-03-13T15:53:39.619Z,97235.40
2023-03-13T15:55:15.029Z,97231.19
2023-03-13T15:56:38.014Z,97231.70
2023-03-13T15:58:12.984Z,97233.48
2023-03-13T15:59:34.403Z,97232.88
2023-03-13T16:00:57.917Z,97232.86
2023-03-13T16:02:32.240Z,97229.15
2023-03-13T16:04:07.009Z,97232.98
2023-03-13T16:05:28.553Z,97231.84
2023-03-13T16:07:00.959Z,97234.11
2023-03-13T16:08:36.908Z,97232.19
2023-03-13T16:10:22.602Z,97228.10
2023-03-13T16:12:08.333Z,97233.13
2023-03-13T16:13:51.611Z,97233.05
2023-03-13T16:15:35.095Z,97230.41
2023-03-13T16:17:18.719Z,97238.11
2023-03-13T16:19:10.874Z,97217.95
2023-03-13T16:20:54.519Z,97238.99
2023-03-13T16:22:38.260Z,97243.30
2023-03-13T16:24:22.522Z,97244.34
2023-03-13T16:25:54.554Z,97249.73
2023-03-13T16:27:26.226Z,97246.77
2023-03-13T16:29:16.317Z,97253.95
2023-03-13T16:30:55.838Z,97250.91
2023-03-13T16:32:33.464Z,97255.85
2023-03-13T16:34:08.441Z,97254.33
2023-03-13T16:35:39.720Z,97253.65
2023-03-13T16:37:11.566Z,97251.77
2023-03-13T16:38:50.081Z,97251.96
2023-03-13T16:40:33.999Z,97251.68
2023-03-13T16:42:17.957Z,97260.07
2023-03-13T16:44:10.214Z,97258.46
2023-03-13T16:45:49.704Z,97254.36
2023-03-13T16:47:33.350Z,97257.77
2023-03-13T16:49:05.787Z,97257.27
2023-03-13T16:50:58.407Z,97255.36
2023-03-13T16:52:33.507Z,97257.81
2023-03-13T16:53:54.845Z,97259.34
2023-03-13T16:55:27.330Z,97261.71
2023-03-13T16:57:11.547Z,97250.08
2023-03-13T16:58:33.573Z,97250.27
2023-03-13T17:00:21.602Z,97251.38
2023-03-13T17:01:54.018Z,97251.83
2023-03-13T17:03:14.275Z,97249.73
2023-03-13T17:04:46.562Z,97248.95
2023-03-13T17:06:19.023Z,97247.20
2023-03-13T17:07:51.275Z,97238.39
2023-03-13T17:09:35.034Z,97233.02
2023-03-13T17:11:12.792Z,97227.39
2023-03-13T17:12:53.574Z,97231.96
2023-03-13T17:14:25.757Z,97232.83
2023-03-13T17:16:05.697Z,97228.15
2023-03-13T17:17:28.072Z,97226.57
2023-03-13T17:18:59.872Z,97225.87
2023-03-13T17:20:34.302Z,97221.40
2023-03-13T17:22:18.014Z,97216.48
2023-03-13T17:23:50.381Z,97215.25
2023-03-13T17:25:42.493Z,97216.68
2023-03-13T17:27:14.936Z,97216.46
2023-03-13T17:28:37.618Z,97219.86
2023-03-13T17:30:21.688Z,97215.39
2023-03-13T17:32:06.494Z,97213.33
2023-03-13T17:33:41.168Z,97213.44
2023-03-13T17:35:25.374Z,97214.80
2023-03-13T17:37:12.797Z,97220.73
2023-03-13T17:38:56.981Z,97216.06
2023-03-13T17:40:40.893Z,97225.64
2023-03-13T17:42:13.307Z,97209.95
2023-03-13T17:43:56.944Z,97229.61
2023-03-13T17:45:37.818Z,97228.15
2023-03-13T17:47:12.574Z,97216.00
2023-03-13T17:48:40.055Z,97227.55
2023-03-13T17:50:13.097Z,97233.02
2023-03-13T17:51:45.625Z,97231.88
2023-03-13T17:53:17.836Z,97225.07
2023-03-13T17:54:45.697Z,97225.08
2023-03-13T17:56:08.589Z,97226.67
2023-03-13T17:57:39.160Z,97227.10
2023-03-13T17:59:11.817Z,97234.95
2023-03-13T18:00:46.791Z,97232.92
2023-03-13T18:02:08.206Z,97236.83
2023-03-13T18:03:28.764Z,97234.30
2023-03-13T18:05:11.036Z,97238.67
2023-03-13T18:06:43.736Z,97230.06
2023-03-13T18:08:09.785Z,97217.45
2023-03-13T18:09:59.668Z,97220.92
2023-03-13T18:11:32.209Z,97213.71
2023-03-13T18:13:04.746Z,97211.52
2023-03-13T18:14:37.036Z,97214.75
2023-03-13T18:16:12.236Z,97200.84
2023-03-13T18:17:32.593Z,97214.14
2023-03-13T18:19:16.976Z,97207.58
2023-03-13T18:21:00.872Z,97206.36
2023-03-13T18:22:40.679Z,97207.69
2023-03-13T18:24:13.162Z,97199.75
2023-03-13T18:25:36.069Z,97201.86
2023-03-13T18:27:18.044Z,97193.67
2023-03-13T18:28:59.572Z,97190.38
2023-03-13T18:30:44.061Z,97188.33
2023-03-13T18:32:07.555Z,97187.98
2023-03-13T18:33:35.112Z,97191.65
2023-03-13T18:35:14.653Z,97197.35
2023-03-13T18:36:47.000Z,97197.92
2023-03-13T18:38:18.389Z,97197.67
2023-03-13T18:39:50.633Z,97198.23
2023-03-13T18:41:39.576Z,97195.55
2023-03-13T18:43:23.717Z,97197.61
2023-03-13T18:44:56.075Z,97197.23
2023-03-13T18:46:30.210Z,97197.67
2023-03-13T18:48:16.045Z,97195.33